Time;durP1;ratioP1;P1;durP2;ratioP2;P2;SDS_P1;SDS_P2;PMS_P1;PMS_P2;Temp;Humidity;BMP_temperature;BMP_pressure;BME280_temperature;BME280_humidity;BME280_pressure;Samples;Min_cycle;Max_cycle;Signal;HPM_P1;HPM_P2
2023/10/26 00:01:46;;;;;;;1.42;1.05;;;20.50;51.60;;;;;;5064773;28;20028;-60
2023/10/26 00:04:12;;;;;;;1.27;1.00;;;20.50;51.60;;;;;;5053982;28;20044;-59
2023/10/26 00:06:38;;;;;;;1.02;0.82;;;20.50;51.60;;;;;;5062996;28;20024;-60
2023/10/26 00:09:03;;;;;;;1.13;0.77;;;20.50;51.60;;;;;;5062681;28;20032;-59
2023/10/26 00:11:30;;;;;;;0.90;0.80;;;20.50;51.60;;;;;;5059328;28;20470;-60
2023/10/26 00:13:56;;;;;;;1.13;0.77;;;20.50;51.60;;;;;;5063134;28;20024;-59
2023/10/26 00:16:22;;;;;;;1.02;0.88;;;20.50;51.60;;;;;;5071136;28;20106;-60
2023/10/26 00:18:48;;;;;;;0.73;0.70;;;20.40;51.50;;;;;;5071456;28;20033;-59
2023/10/26 00:21:14;;;;;;;1.80;1.00;;;20.40;51.50;;;;;;5074354;28;20028;-59
2023/10/26 00:23:39;;;;;;;1.00;0.70;;;20.50;51.50;;;;;;5057745;28;20040;-59
2023/10/26 00:26:05;;;;;;;1.77;0.75;;;20.40;51.50;;;;;;5072227;28;20024;-59
2023/10/26 00:28:31;;;;;;;0.88;0.65;;;20.40;51.50;;;;;;5078081;28;20116;-59
2023/10/26 00:30:57;;;;;;;1.08;0.90;;;20.40;51.50;;;;;;5071505;28;20459;-59
2023/10/26 00:33:23;;;;;;;1.10;1.00;;;20.40;51.50;;;;;;5051217;28;20055;-59
2023/10/26 00:35:51;;;;;;;1.00;0.80;;;20.40;51.50;;;;;;5068135;28;20059;-57
2023/10/26 00:38:17;;;;;;;0.95;0.90;;;20.40;51.50;;;;;;5075966;28;20052;-59
2023/10/26 00:40:43;;;;;;;1.27;0.90;;;20.40;51.40;;;;;;5050570;28;20025;-58
2023/10/26 00:43:22;;;;;;;1.92;0.70;;;20.40;51.40;;;;;;5072397;28;20117;-59
2023/10/26 00:45:53;;;;;;;1.33;0.80;;;20.40;51.40;;;;;;5060746;28;20035;-58
2023/10/26 00:48:23;;;;;;;0.80;0.80;;;20.30;51.30;;;;;;5067179;28;20048;-59
2023/10/26 00:50:49;;;;;;;1.60;0.80;;;20.40;51.40;;;;;;5080014;28;20052;-59
2023/10/26 00:53:17;;;;;;;1.00;0.80;;;20.40;51.40;;;;;;5064693;28;20067;-58
2023/10/26 00:55:48;;;;;;;1.35;0.70;;;20.30;51.30;;;;;;5065824;28;20032;-57
2023/10/26 00:58:14;;;;;;;0.85;0.80;;;20.30;51.30;;;;;;5068564;28;20456;-60
2023/10/26 01:00:40;;;;;;;2.15;0.90;;;20.30;51.30;;;;;;5060904;28;20086;-57
2023/10/26 01:03:06;;;;;;;1.75;0.93;;;20.40;51.40;;;;;;5071499;28;20029;-58
2023/10/26 01:05:32;;;;;;;0.90;0.80;;;20.30;51.30;;;;;;5070497;28;20124;-60
2023/10/26 01:07:59;;;;;;;1.10;0.70;;;20.30;51.30;;;;;;5052871;28;20112;-59
2023/10/26 01:10:26;;;;;;;1.05;0.80;;;20.30;51.30;;;;;;5069933;28;20021;-59
2023/10/26 01:12:53;;;;;;;1.15;0.75;;;20.30;51.30;;;;;;5076884;28;20362;-59
2023/10/26 01:15:19;;;;;;;0.68;0.60;;;20.30;51.30;;;;;;5072593;28;20031;-58
2023/10/26 01:17:45;;;;;;;0.85;0.77;;;20.30;51.30;;;;;;5066128;28;20352;-57
2023/10/26 01:20:18;;;;;;;1.73;0.90;;;20.30;51.30;;;;;;5059852;28;20033;-59
2023/10/26 01:22:44;;;;;;;0.70;0.70;;;20.30;51.20;;;;;;5055035;28;20048;-60
2023/10/26 01:25:10;;;;;;;0.60;0.60;;;20.30;51.20;;;;;;5067942;28;20067;-57
2023/10/26 01:27:37;;;;;;;1.67;0.77;;;20.30;51.20;;;;;;5066266;28;20020;-60
2023/10/26 01:30:03;;;;;;;1.30;1.00;;;20.30;51.20;;;;;;5065305;28;20035;-59
2023/10/26 01:32:29;;;;;;;0.75;0.75;;;20.30;51.20;;;;;;5068754;28;20119;-60
2023/10/26 01:34:55;;;;;;;1.98;1.00;;;20.30;51.20;;;;;;5063879;28;20530;-57
2023/10/26 01:37:21;;;;;;;1.10;0.65;;;20.30;51.20;;;;;;5066882;28;20071;-56
2023/10/26 01:39:47;;;;;;;1.23;0.90;;;20.30;51.20;;;;;;5055279;28;20071;-60
2023/10/26 01:42:12;;;;;;;1.55;0.98;;;20.20;51.10;;;;;;5069679;28;20170;-59
2023/10/26 01:44:39;;;;;;;0.63;0.60;;;20.20;51.10;;;;;;5074649;28;20020;-59
2023/10/26 01:47:06;;;;;;;0.90;0.70;;;20.30;51.20;;;;;;5054773;28;20111;-59
2023/10/26 01:49:32;;;;;;;1.10;0.80;;;20.30;51.20;;;;;;5071494;28;20025;-60
2023/10/26 01:51:58;;;;;;;0.70;0.70;;;20.20;51.10;;;;;;5066662;28;20416;-59
2023/10/26 01:54:23;;;;;;;0.93;0.75;;;20.20;51.10;;;;;;5067436;28;20078;-58
2023/10/26 01:56:49;;;;;;;1.13;0.70;;;20.20;51.10;;;;;;5075124;28;20036;-59
2023/10/26 01:59:15;;;;;;;1.10;0.80;;;20.20;51.10;;;;;;5051508;28;20450;-60
2023/10/26 02:01:41;;;;;;;0.93;0.80;;;20.20;51.10;;;;;;5054311;28;20039;-60
2023/10/26 02:04:07;;;;;;;1.08;0.70;;;20.20;51.10;;;;;;5053177;28;20020;-58
2023/10/26 02:06:33;;;;;;;0.98;0.65;;;20.20;51.10;;;;;;5075756;28;20066;-58
2023/10/26 02:08:59;;;;;;;1.33;0.80;;;20.20;51.10;;;;;;5076097;28;20029;-60
2023/10/26 02:11:25;;;;;;;1.13;0.80;;;20.20;51.20;;;;;;5079311;28;20033;-57
2023/10/26 02:13:51;;;;;;;0.85;0.80;;;20.20;51.20;;;;;;5061186;28;20031;-57
2023/10/26 02:16:18;;;;;;;1.80;0.80;;;20.20;51.20;;;;;;5055380;28;20414;-59
2023/10/26 02:18:44;;;;;;;1.27;0.80;;;20.20;51.20;;;;;;5081513;28;20016;-59
2023/10/26 02:21:11;;;;;;;1.38;0.80;;;20.20;51.20;;;;;;5054693;28;20029;-61
2023/10/26 02:23:38;;;;;;;1.40;1.00;;;20.10;51.20;;;;;;5068504;28;20028;-59
2023/10/26 02:26:04;;;;;;;0.85;0.70;;;20.10;51.20;;;;;;5064282;28;20055;-59
2023/10/26 02:28:30;;;;;;;0.80;0.73;;;20.20;51.20;;;;;;5054080;28;20028;-59
2023/10/26 02:30:56;;;;;;;0.77;0.70;;;20.10;51.20;;;;;;5057507;28;20025;-62
2023/10/26 02:33:22;;;;;;;1.05;0.80;;;20.20;51.30;;;;;;5065904;28;20045;-60
2023/10/26 02:35:47;;;;;;;0.82;0.82;;;20.20;51.30;;;;;;5064057;28;20032;-57
2023/10/26 02:38:13;;;;;;;0.63;0.63;;;20.20;51.30;;;;;;5071265;28;20036;-59
2023/10/26 02:40:39;;;;;;;1.40;1.10;;;20.20;51.30;;;;;;5066392;28;20079;-59
2023/10/26 02:43:05;;;;;;;0.80;0.70;;;20.10;51.20;;;;;;5056077;28;20029;-60
2023/10/26 02:45:31;;;;;;;0.73;0.70;;;20.10;51.90;;;;;;5069133;28;20035;-60
2023/10/26 02:47:58;;;;;;;0.90;0.77;;;20.10;51.30;;;;;;5047099;28;20114;-60
2023/10/26 02:50:24;;;;;;;1.02;0.93;;;20.10;51.30;;;;;;5067881;28;20077;-60
2023/10/26 02:52:50;;;;;;;0.90;0.80;;;20.10;51.30;;;;;;5046212;28;20875;-60
2023/10/26 02:55:16;;;;;;;1.08;0.90;;;20.10;51.30;;;;;;5070512;28;20115;-58
2023/10/26 02:57:43;;;;;;;0.80;0.80;;;20.10;51.30;;;;;;5082163;28;20045;-59
2023/10/26 03:00:09;;;;;;;0.52;0.50;;;20.10;51.30;;;;;;5070052;28;20088;-59
2023/10/26 03:02:35;;;;;;;0.75;0.75;;;20.10;51.30;;;;;;5069076;28;20131;-60
2023/10/26 03:05:02;;;;;;;1.13;0.82;;;20.10;51.40;;;;;;5076091;28;20494;-59
2023/10/26 03:07:28;;;;;;;0.70;0.70;;;20.10;51.30;;;;;;5070029;28;20783;-58
2023/10/26 03:09:54;;;;;;;1.35;0.82;;;20.10;51.30;;;;;;5074027;28;20052;-59
2023/10/26 03:12:21;;;;;;;1.10;1.00;;;20.10;51.30;;;;;;5068131;28;20443;-60
2023/10/26 03:14:47;;;;;;;1.10;0.75;;;20.10;51.30;;;;;;5065461;28;20028;-58
2023/10/26 03:17:15;;;;;;;0.90;0.82;;;20.10;51.30;;;;;;5062745;28;20040;-60
2023/10/26 03:19:42;;;;;;;1.00;0.85;;;20.10;51.30;;;;;;5035358;28;20029;-59
2023/10/26 03:22:09;;;;;;;0.70;0.70;;;20.10;51.30;;;;;;5048541;28;20017;-61
2023/10/26 03:24:36;;;;;;;1.08;0.98;;;20.10;51.30;;;;;;5061482;28;20101;-59
2023/10/26 03:27:01;;;;;;;0.70;0.70;;;20.10;51.40;;;;;;5056132;28;20035;-60
2023/10/26 03:29:27;;;;;;;0.70;0.70;;;20.00;51.30;;;;;;5064385;28;20033;-58
2023/10/26 03:31:53;;;;;;;0.80;0.80;;;20.00;51.30;;;;;;5066008;28;20036;-60
2023/10/26 03:34:19;;;;;;;1.67;0.93;;;20.10;51.50;;;;;;5064916;28;20067;-60
2023/10/26 03:36:45;;;;;;;0.90;0.88;;;20.00;51.30;;;;;;5064956;28;20119;-60
2023/10/26 03:39:11;;;;;;;0.70;0.70;;;20.00;51.30;;;;;;5072118;28;20170;-61
2023/10/26 03:41:38;;;;;;;1.00;0.90;;;20.00;51.30;;;;;;5050058;28;20037;-60
2023/10/26 03:44:04;;;;;;;1.27;1.00;;;20.00;51.30;;;;;;5049694;28;20020;-59
2023/10/26 03:46:31;;;;;;;1.35;1.00;;;20.00;51.30;;;;;;5066354;28;20078;-60
2023/10/26 03:48:57;;;;;;;0.75;0.75;;;20.00;51.30;;;;;;5051644;28;20025;-59
2023/10/26 03:51:23;;;;;;;0.80;0.80;;;20.00;51.30;;;;;;5051172;28;20566;-60
2023/10/26 03:53:49;;;;;;;0.80;0.80;;;20.00;51.30;;;;;;5067584;28;20436;-59
2023/10/26 03:56:16;;;;;;;1.33;1.00;;;20.00;51.40;;;;;;5067523;28;20032;-60
2023/10/26 03:58:42;;;;;;;1.20;0.93;;;20.00;51.40;;;;;;5051972;28;20024;-59
2023/10/26 04:01:07;;;;;;;0.85;0.80;;;20.00;51.30;;;;;;5048452;28;20104;-59
2023/10/26 04:03:33;;;;;;;0.82;0.80;;;20.00;51.30;;;;;;5061412;28;20047;-59
2023/10/26 04:05:59;;;;;;;1.38;0.90;;;20.00;51.30;;;;;;5077332;28;20038;-59
2023/10/26 04:08:25;;;;;;;0.85;0.77;;;20.00;51.40;;;;;;5065641;28;20025;-59
2023/10/26 04:10:51;;;;;;;0.73;0.73;;;20.00;51.30;;;;;;5071049;28;20406;-60
2023/10/26 04:13:16;;;;;;;1.10;0.90;;;20.00;51.40;;;;;;5074632;28;20050;-58
2023/10/26 04:15:42;;;;;;;0.80;0.80;;;20.00;51.40;;;;;;5066682;28;20020;-60
2023/10/26 04:18:08;;;;;;;1.40;0.90;;;20.00;51.40;;;;;;5068023;28;20140;-59
2023/10/26 04:20:34;;;;;;;0.80;0.80;;;20.00;51.40;;;;;;5068562;28;20095;-59
2023/10/26 04:23:00;;;;;;;0.85;0.80;;;20.00;51.40;;;;;;5059098;28;20111;-60
2023/10/26 04:25:29;;;;;;;0.80;0.80;;;20.00;51.30;;;;;;5062500;28;20032;-60
2023/10/26 04:27:57;;;;;;;0.70;0.70;;;19.90;51.30;;;;;;5054732;28;20104;-59
2023/10/26 04:30:23;;;;;;;0.75;0.70;;;20.00;51.30;;;;;;5063573;28;20043;-60
2023/10/26 04:32:50;;;;;;;0.80;0.80;;;20.00;51.30;;;;;;5061927;28;20037;-61
2023/10/26 04:35:16;;;;;;;1.15;0.90;;;20.00;51.40;;;;;;5060328;28;20086;-60
2023/10/26 04:37:41;;;;;;;1.00;0.80;;;19.90;51.30;;;;;;5061681;28;20044;-60
2023/10/26 04:40:08;;;;;;;1.70;1.00;;;20.00;51.30;;;;;;5061110;28;20064;-60
2023/10/26 04:42:34;;;;;;;1.00;0.90;;;19.90;51.30;;;;;;5063529;28;20062;-59
2023/10/26 04:45:00;;;;;;;1.27;1.05;;;19.90;51.30;;;;;;5062669;28;20056;-58
2023/10/26 04:47:25;;;;;;;1.50;0.80;;;20.00;51.40;;;;;;5065123;28;20046;-59
2023/10/26 04:49:51;;;;;;;0.93;0.80;;;19.90;51.30;;;;;;5065357;28;20024;-59
2023/10/26 04:52:20;;;;;;;1.00;0.90;;;19.90;51.30;;;;;;5063589;28;20465;-60
2023/10/26 04:54:46;;;;;;;0.77;0.77;;;19.90;51.30;;;;;;5065408;28;20064;-59
2023/10/26 04:57:12;;;;;;;1.10;1.00;;;20.00;51.30;;;;;;5064455;28;20439;-59
2023/10/26 04:59:38;;;;;;;1.17;1.00;;;20.00;51.30;;;;;;5065193;28;20043;-59
2023/10/26 05:02:04;;;;;;;1.00;0.90;;;20.00;51.30;;;;;;5067830;28;20033;-60
2023/10/26 05:04:30;;;;;;;0.82;0.80;;;20.00;51.30;;;;;;5069402;28;20443;-60
2023/10/26 05:06:56;;;;;;;1.40;1.10;;;20.00;51.30;;;;;;5072270;28;20024;-57
2023/10/26 05:09:22;;;;;;;0.70;0.70;;;20.00;51.30;;;;;;5072178;28;20074;-58
2023/10/26 05:11:48;;;;;;;1.20;1.10;;;20.00;51.20;;;;;;5072024;28;20056;-59
2023/10/26 05:14:13;;;;;;;1.38;0.95;;;20.00;51.20;;;;;;5069087;28;20056;-58
2023/10/26 05:16:39;;;;;;;1.15;1.05;;;20.00;51.20;;;;;;5070882;28;20033;-59
2023/10/26 05:19:05;;;;;;;1.10;1.00;;;20.00;51.20;;;;;;5074035;28;20864;-59
2023/10/26 05:21:31;;;;;;;1.00;0.90;;;20.00;51.10;;;;;;5073256;28;20032;-59
2023/10/26 05:23:57;;;;;;;0.90;0.90;;;20.00;51.10;;;;;;5074849;28;20067;-58
2023/10/26 05:26:22;;;;;;;1.10;1.00;;;20.00;51.00;;;;;;5073047;28;20025;-58
2023/10/26 05:28:48;;;;;;;1.50;1.08;;;20.00;51.00;;;;;;5071593;28;20068;-57
2023/10/26 05:31:14;;;;;;;0.80;0.80;;;20.00;50.90;;;;;;5074298;28;20343;-59
2023/10/26 05:33:40;;;;;;;1.10;1.00;;;20.00;50.90;;;;;;5073848;28;20132;-59
2023/10/26 05:36:07;;;;;;;2.28;1.02;;;20.00;50.90;;;;;;5069078;28;20043;-60
2023/10/26 05:38:33;;;;;;;1.10;1.00;;;20.00;50.90;;;;;;5071157;28;20047;-59
2023/10/26 05:40:58;;;;;;;0.88;0.88;;;20.10;50.90;;;;;;5056037;28;20028;-57
2023/10/26 05:43:24;;;;;;;0.90;0.80;;;20.10;50.80;;;;;;5084487;28;20101;-60
2023/10/26 05:45:52;;;;;;;0.88;0.73;;;20.10;50.80;;;;;;5078240;28;20103;-58
2023/10/26 05:48:19;;;;;;;0.95;0.75;;;20.10;50.80;;;;;;5081965;28;20534;-56
2023/10/26 05:50:45;;;;;;;0.88;0.75;;;20.10;50.70;;;;;;5065464;28;20437;-59
2023/10/26 05:53:12;;;;;;;1.10;0.90;;;20.10;50.70;;;;;;5076690;28;20043;-58
2023/10/26 05:55:40;;;;;;;0.77;0.77;;;20.10;50.60;;;;;;5085450;28;20065;-61
2023/10/26 05:58:09;;;;;;;0.77;0.70;;;20.10;50.60;;;;;;5083685;28;20040;-57
2023/10/26 06:00:34;;;;;;;1.52;0.80;;;20.10;50.60;;;;;;5086020;28;20359;-59
2023/10/26 06:03:00;;;;;;;0.90;0.90;;;20.10;50.60;;;;;;5088404;28;20118;-58
2023/10/26 06:05:27;;;;;;;0.80;0.80;;;20.10;50.60;;;;;;5086753;28;20111;-58
2023/10/26 06:07:53;;;;;;;0.70;0.70;;;20.10;50.50;;;;;;5079423;28;20066;-59
2023/10/26 06:10:19;;;;;;;0.80;0.70;;;20.10;50.50;;;;;;5083691;28;20387;-58
2023/10/26 06:12:45;;;;;;;1.00;0.85;;;20.10;50.50;;;;;;5081063;28;20339;-58
2023/10/26 06:15:11;;;;;;;1.17;0.90;;;20.10;50.50;;;;;;5083140;28;20035;-60
2023/10/26 06:17:36;;;;;;;0.80;0.75;;;20.10;50.50;;;;;;5081941;28;20046;-60
2023/10/26 06:20:03;;;;;;;1.00;0.90;;;20.10;50.50;;;;;;5081366;28;20504;-60
2023/10/26 06:22:29;;;;;;;1.10;1.00;;;20.10;50.40;;;;;;5078969;28;20103;-59
2023/10/26 06:24:55;;;;;;;1.10;0.88;;;20.10;50.40;;;;;;5085014;28;20119;-58
2023/10/26 06:27:21;;;;;;;0.80;0.80;;;20.10;50.40;;;;;;5082117;28;20059;-60
2023/10/26 06:29:51;;;;;;;0.70;0.70;;;20.10;50.30;;;;;;5089713;28;20519;-59
2023/10/26 06:32:17;;;;;;;0.80;0.80;;;20.10;50.30;;;;;;5083993;28;20036;-59
2023/10/26 06:34:43;;;;;;;0.80;0.70;;;20.10;50.90;;;;;;5087820;28;20044;-60
2023/10/26 06:37:09;;;;;;;0.80;0.80;;;20.10;50.20;;;;;;5088871;28;20028;-59
2023/10/26 06:39:35;;;;;;;0.85;0.77;;;20.10;50.20;;;;;;5087777;28;20031;-56
2023/10/26 06:42:01;;;;;;;0.90;0.90;;;20.10;50.20;;;;;;5085708;28;20150;-59
2023/10/26 06:44:28;;;;;;;1.15;0.82;;;20.10;50.10;;;;;;5060478;28;20027;-59
2023/10/26 06:46:54;;;;;;;0.90;0.80;;;20.10;50.10;;;;;;5088907;28;20020;-59
2023/10/26 06:49:20;;;;;;;1.30;1.20;;;20.10;50.10;;;;;;5087192;28;20354;-57
2023/10/26 06:51:48;;;;;;;1.27;0.90;;;20.10;50.10;;;;;;5086701;28;20033;-60
2023/10/26 06:54:15;;;;;;;1.05;0.90;;;20.10;50.10;;;;;;5081995;28;20113;-58
2023/10/26 06:56:41;;;;;;;0.70;0.70;;;20.10;50.10;;;;;;5088734;28;20086;-59
2023/10/26 06:59:07;;;;;;;1.95;1.05;;;20.10;50.00;;;;;;5087548;28;20020;-58
2023/10/26 07:01:34;;;;;;;1.35;1.08;;;20.10;50.00;;;;;;5085672;28;20020;-57
2023/10/26 07:04:00;;;;;;;0.93;0.88;;;20.20;50.10;;;;;;5087765;28;20117;-58
2023/10/26 07:06:26;;;;;;;0.98;0.88;;;20.10;50.00;;;;;;5084536;28;20034;-57
2023/10/26 07:08:52;;;;;;;2.00;1.00;;;20.10;50.00;;;;;;5082460;28;20024;-59
2023/10/26 07:11:17;;;;;;;0.80;0.75;;;20.20;50.00;;;;;;5083312;28;20032;-59
2023/10/26 07:13:45;;;;;;;1.58;0.80;;;20.20;50.00;;;;;;5084338;28;20031;-58
2023/10/26 07:16:11;;;;;;;0.70;0.70;;;20.20;50.00;;;;;;5087084;28;20020;-60
2023/10/26 07:18:37;;;;;;;0.90;0.65;;;20.20;50.00;;;;;;5082312;28;20105;-59
2023/10/26 07:21:06;;;;;;;0.77;0.70;;;20.10;50.00;;;;;;5085385;28;20401;-58
2023/10/26 07:23:35;;;;;;;0.63;0.63;;;20.20;50.10;;;;;;5072361;28;20398;-58
2023/10/26 07:26:02;;;;;;;0.77;0.77;;;20.10;50.10;;;;;;5084778;28;20119;-59
2023/10/26 07:28:28;;;;;;;1.73;0.90;;;20.10;50.10;;;;;;5075870;28;20082;-58
2023/10/26 07:30:54;;;;;;;0.95;0.80;;;20.20;50.20;;;;;;5074428;28;20035;-59
2023/10/26 07:33:20;;;;;;;0.60;0.60;;;20.20;50.20;;;;;;5073592;28;20074;-58
2023/10/26 07:35:50;;;;;;;0.70;0.70;;;20.20;50.20;;;;;;5074508;28;20398;-58
2023/10/26 07:38:17;;;;;;;1.02;0.73;;;20.20;50.20;;;;;;5073795;28;20048;-59
2023/10/26 07:40:50;;;;;;;0.82;0.82;;;20.20;50.20;;;;;;5085949;28;20115;-58
2023/10/26 07:43:16;;;;;;;0.93;0.82;;;20.20;50.20;;;;;;5088933;28;20466;-59
2023/10/26 07:45:42;;;;;;;0.98;0.80;;;20.20;50.20;;;;;;5082740;28;20052;-57
2023/10/26 07:48:07;;;;;;;0.65;0.60;;;20.20;50.20;;;;;;5081588;28;20382;-58
2023/10/26 07:50:33;;;;;;;0.80;0.80;;;20.20;50.20;;;;;;5086649;28;20472;-60
2023/10/26 07:52:59;;;;;;;0.70;0.70;;;20.20;50.20;;;;;;5084697;28;20119;-58
2023/10/26 07:55:25;;;;;;;0.88;0.65;;;20.20;50.20;;;;;;5084380;28;20028;-55
2023/10/26 07:57:51;;;;;;;0.60;0.60;;;20.20;50.20;;;;;;5087723;28;20039;-59
2023/10/26 08:00:17;;;;;;;0.60;0.57;;;20.20;50.10;;;;;;5086894;28;20048;-59
2023/10/26 08:02:43;;;;;;;0.98;0.77;;;20.20;50.10;;;;;;5078960;28;20037;-57
2023/10/26 08:05:09;;;;;;;1.05;0.68;;;20.20;50.10;;;;;;5080980;28;20033;-56
2023/10/26 08:07:39;;;;;;;0.68;0.68;;;20.20;50.10;;;;;;5076277;28;20028;-57
2023/10/26 08:10:05;;;;;;;0.82;0.60;;;20.20;50.10;;;;;;5083607;28;20034;-58
2023/10/26 08:12:31;;;;;;;0.40;0.40;;;20.30;50.70;;;;;;5083143;28;20024;-60
2023/10/26 08:14:57;;;;;;;0.57;0.57;;;20.30;50.10;;;;;;5082363;28;20489;-58
2023/10/26 08:17:25;;;;;;;0.57;0.57;;;20.30;50.10;;;;;;5086340;28;20047;-58
2023/10/26 08:19:53;;;;;;;0.80;0.60;;;20.30;50.10;;;;;;5087393;28;20032;-59
2023/10/26 08:22:20;;;;;;;1.08;0.60;;;20.30;50.00;;;;;;5087360;28;20016;-59
2023/10/26 08:24:47;;;;;;;1.10;0.70;;;20.40;50.00;;;;;;5071390;28;20028;-59
2023/10/26 08:27:13;;;;;;;0.60;0.60;;;20.40;50.00;;;;;;5084859;28;20030;-60
2023/10/26 08:29:39;;;;;;;0.68;0.68;;;20.40;50.00;;;;;;5066390;28;20033;-59
2023/10/26 08:32:05;;;;;;;0.60;0.60;;;20.50;50.00;;;;;;5090403;28;20312;-58
2023/10/26 08:34:31;;;;;;;0.50;0.50;;;20.50;50.00;;;;;;5082527;28;20045;-57
2023/10/26 08:37:00;;;;;;;0.60;0.55;;;20.50;49.90;;;;;;5079016;28;20451;-59
2023/10/26 08:39:26;;;;;;;0.65;0.65;;;20.50;49.90;;;;;;5091232;28;20036;-59
2023/10/26 08:41:54;;;;;;;0.50;0.50;;;20.50;49.80;;;;;;5061531;28;20346;-59
2023/10/26 08:44:20;;;;;;;1.23;0.70;;;20.60;49.80;;;;;;5091436;28;20032;-60
2023/10/26 08:46:51;;;;;;;0.75;0.65;;;20.60;49.80;;;;;;5085229;28;20020;-59
2023/10/26 08:49:19;;;;;;;0.98;0.80;;;20.60;49.70;;;;;;5091347;28;20473;-59
2023/10/26 08:51:45;;;;;;;1.38;0.60;;;20.60;49.60;;;;;;5089030;28;20035;-58
2023/10/26 08:54:11;;;;;;;2.00;0.80;;;20.60;49.60;;;;;;5089045;28;20099;-56
2023/10/26 08:56:37;;;;;;;0.75;0.70;;;20.70;49.60;;;;;;5081651;28;20451;-59
2023/10/26 08:59:04;;;;;;;0.70;0.60;;;20.70;49.60;;;;;;5078101;28;20100;-57
2023/10/26 09:01:30;;;;;;;1.25;0.80;;;20.70;49.60;;;;;;5077993;28;20031;-57
2023/10/26 09:03:56;;;;;;;0.77;0.70;;;20.70;49.50;;;;;;5077556;28;20443;-59
2023/10/26 09:06:22;;;;;;;1.13;0.82;;;20.70;49.60;;;;;;5081800;28;20422;-58
2023/10/26 09:09:03;;;;;;;0.82;0.80;;;20.80;49.60;;;;;;5077015;28;20033;-57
2023/10/26 09:11:30;;;;;;;1.08;0.73;;;20.80;49.60;;;;;;5060924;28;20750;-58
2023/10/26 09:14:15;;;;;;;0.95;0.70;;;20.80;49.60;;;;;;5082435;28;20025;-58
2023/10/26 09:16:45;;;;;;;1.38;1.00;;;20.80;49.50;;;;;;5074659;28;20045;-59
2023/10/26 09:19:12;;;;;;;1.10;0.90;;;20.80;49.50;;;;;;5080115;28;20032;-59
2023/10/26 09:21:56;;;;;;;1.00;0.88;;;20.80;49.50;;;;;;5081935;28;20161;-59
2023/10/26 09:24:24;;;;;;;2.63;0.90;;;20.80;49.50;;;;;;5076210;28;20074;-59
2023/10/26 09:26:55;;;;;;;0.90;0.82;;;20.80;49.50;;;;;;5081352;28;20035;-58
2023/10/26 09:29:34;;;;;;;1.40;1.10;;;20.80;49.50;;;;;;5078179;28;20434;-59
2023/10/26 09:32:02;;;;;;;1.10;1.00;;;20.90;49.50;;;;;;5074914;28;20066;-57
2023/10/26 09:34:28;;;;;;;1.00;0.93;;;20.90;49.60;;;;;;5076161;28;20478;-61
2023/10/26 09:37:12;;;;;;;1.13;0.90;;;20.90;49.50;;;;;;5058002;28;20033;-56
2023/10/26 09:39:39;;;;;;;0.80;0.80;;;20.90;49.50;;;;;;5073226;28;20460;-60
2023/10/26 09:42:09;;;;;;;1.67;0.80;;;20.90;49.60;;;;;;5073565;28;20032;-59
2023/10/26 09:44:36;;;;;;;1.15;0.85;;;20.90;49.50;;;;;;5073440;28;20031;-59
2023/10/26 09:47:03;;;;;;;1.25;0.90;;;20.90;49.50;;;;;;5058319;28;20028;-59
2023/10/26 09:49:30;;;;;;;1.55;1.20;;;20.90;49.50;;;;;;5072386;28;20044;-59
2023/10/26 09:51:58;;;;;;;1.10;1.00;;;20.90;49.50;;;;;;5073403;28;20167;-59
2023/10/26 09:54:32;;;;;;;1.58;1.35;;;20.90;49.50;;;;;;5079376;28;20390;-57
2023/10/26 09:57:02;;;;;;;1.20;1.10;;;20.90;49.50;;;;;;5064612;28;20039;-57
2023/10/26 09:59:29;;;;;;;1.60;1.33;;;20.90;49.50;;;;;;5074351;28;20025;-58
2023/10/26 10:01:55;;;;;;;1.38;1.05;;;20.90;49.50;;;;;;5072685;28;20020;-59
2023/10/26 10:04:37;;;;;;;1.20;1.10;;;20.90;49.50;;;;;;5073329;28;20052;-59
2023/10/26 10:07:04;;;;;;;1.58;1.48;;;20.90;49.50;;;;;;5076212;28;20435;-59
2023/10/26 10:09:30;;;;;;;1.67;1.40;;;20.90;49.60;;;;;;5073580;28;20028;-58
2023/10/26 10:12:06;;;;;;;1.90;1.40;;;20.90;49.60;;;;;;5074839;28;20439;-59
2023/10/26 10:14:47;;;;;;;1.50;1.40;;;20.90;49.60;;;;;;5076437;28;20112;-59
2023/10/26 10:17:17;;;;;;;3.33;1.60;;;20.90;49.60;;;;;;5086419;28;20043;-58
2023/10/26 10:19:46;;;;;;;1.17;1.00;;;20.80;49.60;;;;;;5094607;28;20059;-58
2023/10/26 10:22:37;;;;;;;1.48;1.13;;;20.80;49.60;;;;;;5086524;28;20024;-57
2023/10/26 10:25:03;;;;;;;1.17;1.08;;;20.80;49.60;;;;;;5096279;28;20039;-56
2023/10/26 10:27:29;;;;;;;1.88;1.45;;;20.80;49.80;;;;;;5092262;28;20032;-58
2023/10/26 10:30:02;;;;;;;1.35;1.17;;;20.80;49.80;;;;;;5073435;28;20450;-58
2023/10/26 10:33:01;;;;;;;1.90;1.27;;;20.80;49.80;;;;;;5077149;28;20115;-53
2023/10/26 10:35:43;;;;;;;1.42;1.27;;;20.80;49.80;;;;;;5029473;28;20172;-59
2023/10/26 10:38:12;;;;;;;2.00;1.60;;;20.80;49.90;;;;;;5025356;28;20388;-59
2023/10/26 10:40:54;;;;;;;2.00;1.60;;;20.70;49.90;;;;;;5034092;28;20029;-57
2023/10/26 10:43:34;;;;;;;1.77;1.33;;;20.70;49.90;;;;;;5035184;28;20018;-59
2023/10/26 10:46:20;;;;;;;2.25;1.60;;;20.70;49.90;;;;;;5034335;28;20445;-57
2023/10/26 10:49:05;;;;;;;1.77;1.40;;;20.70;49.90;;;;;;5051204;28;20036;-59
2023/10/26 10:51:35;;;;;;;2.05;1.75;;;20.70;49.90;;;;;;5055525;28;20036;-59
2023/10/26 10:54:06;;;;;;;1.88;1.70;;;20.70;50.00;;;;;;5052516;28;20082;-57
2023/10/26 10:56:47;;;;;;;3.28;1.75;;;20.70;50.00;;;;;;5049284;28;20104;-56
2023/10/26 10:59:21;;;;;;;2.50;1.38;;;20.70;50.00;;;;;;5043759;28;20033;-60
2023/10/26 11:01:49;;;;;;;2.70;1.67;;;20.70;50.00;;;;;;5033760;28;20033;-63
2023/10/26 11:04:16;;;;;;;2.35;1.90;;;20.70;50.20;;;;;;5032753;28;20115;-59
2023/10/26 11:06:49;;;;;;;2.28;2.08;;;20.70;50.20;;;;;;5037114;28;20402;-62
2023/10/26 11:09:37;;;;;;;2.83;2.35;;;20.70;50.30;;;;;;5039602;28;20108;-60
2023/10/26 11:12:14;;;;;;;2.75;2.28;;;20.80;50.30;;;;;;5038859;28;20144;-58
2023/10/26 11:14:52;;;;;;;2.00;1.80;;;20.80;50.30;;;;;;5043260;28;20072;-60
2023/10/26 11:17:19;;;;;;;2.20;2.00;;;20.80;50.20;;;;;;5030076;28;20109;-59
2023/10/26 11:19:46;;;;;;;2.17;1.83;;;20.90;50.30;;;;;;5037893;28;20487;-59
2023/10/26 11:22:16;;;;;;;2.72;1.80;;;20.90;50.30;;;;;;5039610;28;20038;-60
2023/10/26 11:24:43;;;;;;;1.90;1.60;;;20.90;50.30;;;;;;5036630;28;20532;-56
2023/10/26 11:27:12;;;;;;;2.70;2.05;;;21.00;50.30;;;;;;5032898;28;20194;-56
2023/10/26 11:29:42;;;;;;;2.05;1.45;;;21.10;50.40;;;;;;5031878;28;20056;-57
2023/10/26 11:32:25;;;;;;;1.75;1.60;;;21.10;50.40;;;;;;5039536;28;20223;-58
2023/10/26 11:35:11;;;;;;;3.00;1.83;;;21.10;50.40;;;;;;5064868;28;20643;-59
2023/10/26 11:37:40;;;;;;;1.95;1.58;;;21.20;50.50;;;;;;5085721;28;20047;-57
2023/10/26 11:40:08;;;;;;;2.17;1.98;;;21.20;50.50;;;;;;5081965;28;20055;-52
2023/10/26 11:42:51;;;;;;;2.30;2.08;;;21.30;50.60;;;;;;5065465;28;20022;-55
2023/10/26 11:45:19;;;;;;;2.10;1.70;;;21.30;50.50;;;;;;5069019;28;20032;-58
2023/10/26 11:47:59;;;;;;;2.30;2.10;;;21.30;50.60;;;;;;5067848;28;20025;-57
2023/10/26 11:50:27;;;;;;;1.80;1.70;;;21.40;50.60;;;;;;5071642;28;20467;-55
2023/10/26 11:52:55;;;;;;;1.90;1.73;;;21.40;50.50;;;;;;5069607;28;20036;-58
2023/10/26 11:55:22;;;;;;;1.90;1.73;;;21.40;50.40;;;;;;5072099;28;20082;-57
2023/10/26 11:57:49;;;;;;;1.67;1.58;;;21.50;50.40;;;;;;5069915;28;20058;-58
2023/10/26 12:00:16;;;;;;;2.80;1.92;;;21.50;50.20;;;;;;5072772;28;20035;-57
2023/10/26 12:02:42;;;;;;;1.70;1.50;;;21.60;50.10;;;;;;5076413;28;20169;-55
2023/10/26 12:05:13;;;;;;;1.50;1.40;;;21.50;50.00;;;;;;5085722;28;20131;-57
2023/10/26 12:07:38;;;;;;;2.30;1.73;;;21.50;49.80;;;;;;5071587;28;20024;-57
2023/10/26 12:10:05;;;;;;;1.77;1.52;;;21.50;49.80;;;;;;5073075;28;20029;-57
2023/10/26 12:12:30;;;;;;;1.88;1.70;;;21.50;49.80;;;;;;5067774;28;20021;-56
2023/10/26 12:14:56;;;;;;;1.90;1.70;;;21.50;49.90;;;;;;5065567;28;20115;-56
2023/10/26 12:17:22;;;;;;;1.55;1.40;;;21.40;49.90;;;;;;5069533;28;20040;-58
2023/10/26 12:19:48;;;;;;;2.40;1.50;;;21.40;49.90;;;;;;5072843;28;20034;-57
2023/10/26 12:22:14;;;;;;;2.22;1.85;;;21.40;49.90;;;;;;5074404;28;20020;-57
2023/10/26 12:24:39;;;;;;;1.90;1.40;;;21.40;49.90;;;;;;5070072;28;20105;-58
2023/10/26 12:27:05;;;;;;;1.65;1.40;;;21.50;50.00;;;;;;5070582;28;20032;-57
2023/10/26 12:29:31;;;;;;;2.28;2.00;;;21.50;49.90;;;;;;5052596;28;20081;-56
2023/10/26 12:31:58;;;;;;;1.77;1.60;;;21.50;49.90;;;;;;5067852;28;20024;-56
2023/10/26 12:34:23;;;;;;;1.55;1.40;;;21.50;49.80;;;;;;5070050;28;20402;-58
2023/10/26 12:36:49;;;;;;;1.88;1.65;;;21.50;49.70;;;;;;5068899;28;20032;-55
2023/10/26 12:39:15;;;;;;;1.80;1.60;;;21.60;49.70;;;;;;5072168;28;20314;-54
2023/10/26 12:41:41;;;;;;;1.48;1.35;;;21.60;49.60;;;;;;5069426;28;20033;-58
2023/10/26 12:44:07;;;;;;;2.78;1.85;;;21.60;49.50;;;;;;5067113;28;20032;-58
2023/10/26 12:46:33;;;;;;;2.05;1.65;;;21.60;49.50;;;;;;5074772;28;20024;-58
2023/10/26 12:48:59;;;;;;;1.88;1.48;;;21.60;49.40;;;;;;5075517;28;20419;-58
2023/10/26 12:51:25;;;;;;;1.83;1.60;;;21.60;49.30;;;;;;5069777;28;20351;-59